KJQF Airport Information

Runway Information
Runway 02 Length 7403 ft width 100 ft
Elevation 640 ft Threshold 0 ft Heading 11
Runway 20 Length 7403 ft Width 100 ft
Elevation 700 ft Threshold 652 ft Heading 191
Airport Frequencies
Type A/D Name CHARLOTTE Frequency 128.32 MHZ
Type AWOS Name AWOS 3 Frequency 133.675 MHZ
Type CLD Name CLNC DEL Frequency 118.55 MHZ
Type GND Name GND Frequency 121.85 MHZ
Type TWR Name FAA CONTRA Frequency 134.65 MHZ
Type UNIC Name CTAF/UNICO Frequency 122.95 MHZ
Airport Navaids
Airport Weather Information & NOTAM
ADDS - METARS form results

(1615 UTC 20 January 2022)
Data provider http://aviationweather.gov/metar/data/
 
METAR text: KJQF 201550Z 00000KT 10SM OVC026 09/03 A3013
Conditions at: KJQF (CONCORD REG ARPT, NC, US) observed 1550 UTC 20 January 2022
Temperature: 9.0°C (48°F)
Dewpoint: 3.0°C (37°F) [RH = 66%]
Pressure (altimeter): 30.13 inches Hg (1020.4 mb)
Winds: calm
Visibility: 10 or more miles (16+ km)
Ceiling: 2600 feet AGL
Clouds: overcast cloud deck at 2600 feet AGL
Weather: no significant weather observed at this time